• Join FlightAware (Why Join?)
  • Login
  • US Flag 
02:51AM EST


 

Airport Tracker/Info


-or-


 

Live Flight TrackerFlight Track Log ✈ DAL128 ✈ 21-Nov-2013 ✈ KSEA - KATL

Flight Track Log - Related Links

Times and Time Zones

All times are in EST time to prevent confusion due to time zone crossing. See the DAL128 flight status page for this flight to view local times or setup timezone preferences in your user account.

Time Position Orientation Groundspeed Altitude Reporting Facility
EST Latitude Longitude Course Direction KTS MPH feet Rate Location/Type
12:11PM 47.4719 -122.3064 90° East 182 209 1,600  Level Seattle Center
12:11PM 47.4844 -122.3081 355° North 165 190 2,300 1,889 Climbing Seattle Center
12:12PM 47.5214 -122.3086 359° North 194 223 3,300 1,672 Climbing Seattle Center
12:12PM 47.5444 -122.3100 358° North 219 252 4,000 2,852 Climbing Seattle Center
12:13PM 47.5947 -122.3078 North 265 305 6,200 3,246 Climbing Seattle Center
12:13PM 47.6144 -122.2833 40° Northeast 256 295 7,300 2,786 Climbing Seattle Center
12:14PM 47.3675 -121.7533 90° East  Level Estimated
12:14PM 47.6047 -122.1781 98° East 281 323 10,100  Level Seattle Center
12:15PM 47.3395 -121.5675 90° East  Level Estimated
12:15PM 47.5606 -122.0706 121° Southeast 304 350 11,700  Level Seattle Center
12:16PM 47.3111 -121.3819 96° East  Level Estimated
12:16PM 47.5122 -121.9383 118° Southeast 364 419 13,300  Level Seattle Center
12:17PM 47.2824 -121.1965 90° East  Level Estimated
12:17PM 47.4572 -121.7967 120° Southeast 395 455 15,400  Level Seattle Center
12:19PM 47.4286 -121.6369 105° East 410 472 17,400 1,525 Climbing Seattle Center
12:20PM 47.4253 -121.4739 92° East 413 475 18,500 1,672 Climbing Seattle Center
12:21PM 47.4233 -121.3039 91° East 416 479 20,800 2,016 Climbing Seattle Center
12:22PM 47.4200 -121.1294 92° East 423 487 22,600 1,475 Climbing Seattle Center
12:23PM 47.4169 -120.9525 91° East 432 497 23,800 1,377 Climbing Seattle Center
12:24PM 47.4131 -120.7383 91° East 449 517 25,400 1,377 Climbing Seattle Center
12:25PM 47.4086 -120.5506 92° East 458 527 26,600 1,131 Climbing Seattle Center
12:26PM 47.3947 -120.3578 96° East 478 550 27,700 1,279 Climbing Seattle Center
12:27PM 47.3619 -120.1664 104° East 484 557 29,200 1,426 Climbing Seattle Center
12:28PM 47.3289 -119.9753 104° East 483 556 30,600 885 Climbing Seattle Center
12:29PM 47.2947 -119.7881 105° East 478 550 31,000 197 Climbing Seattle Center
12:30PM 47.2639 -119.5992 103° East 477 549 31,000  Level Seattle Center
12:31PM 47.2303 -119.4117 105° East 476 548 31,000  Level Seattle Center
12:32PM 47.1911 -119.2242 107° East 480 552 31,000  Level Seattle Center
12:33PM 47.1444 -119.0397 110° East 483 556 31,000  Level Seattle Center
12:34PM 47.0933 -118.8553 112° Southeast 487 560 31,000  Level Seattle Center
12:35PM 47.0353 -118.6342 111° Southeast 488 562 31,000  Level Seattle Center
12:36PM 46.9892 -118.4519 110° East 483 556 31,000  Level Seattle Center
12:37PM 46.9408 -118.2697 111° Southeast 483 556 31,000  Level Seattle Center
12:38PM 46.8933 -118.0894 111° Southeast 481 554 31,000  Level Seattle Center
12:39PM 46.8467 -117.9100 111° Southeast 478 550 31,000  Level Seattle Center
12:40PM 46.7989 -117.7311 111° Southeast 477 549 31,000  Level Seattle Center
12:41PM 46.7497 -117.5489 111° Southeast 484 557 31,000  Level Seattle Center
12:42PM 46.7019 -117.3725 111° Southeast 475 547 31,000  Level Seattle Center
12:43PM 46.6522 -117.1931 112° Southeast 480 552 31,000  Level Seattle Center
12:44PM 46.6025 -117.0136 112° Southeast 481 554 31,000  Level Seattle Center
12:45PM 46.5433 -116.8000 112° Southeast 481 554 31,000  Level Seattle Center
12:46PM 46.4936 -116.6203 112° Southeast 482 555 31,000  Level Seattle Center
12:47PM 46.4431 -116.4422 112° Southeast 482 555 31,000  Level Seattle Center
12:48PM 46.3931 -116.2631 112° Southeast 482 555 31,000  Level Seattle Center
12:49PM 46.3425 -116.0839 112° Southeast 482 555 31,000  Level Seattle Center
12:50PM 46.2906 -115.9064 113° Southeast 482 555 31,000  Level Seattle Center
12:51PM 46.2386 -115.7297 113° Southeast 481 554 31,000  Level Seattle Center
12:52PM 46.1861 -115.5506 113° Southeast 484 557 31,000  Level Seattle Center
12:53PM 46.1328 -115.3717 113° Southeast 487 560 31,000  Level Seattle Center
12:54PM 46.0869 -115.2158 113° Southeast 485 558 31,000  Level Salt Lake Center
12:55PM 46.0339 -115.0389 113° Southeast 483 556 31,000  Level Salt Lake Center
12:56PM 45.9811 -114.8628 113° Southeast 481 554 31,000  Level Salt Lake Center
12:57PM 45.9167 -114.6514 114° Southeast 481 554 31,000  Level Salt Lake Center
12:58PM 45.8631 -114.4739 113° Southeast 484 557 31,000  Level Salt Lake Center
12:59PM 45.8108 -114.3050 114° Southeast 490 564 31,000  Level Salt Lake Center
01:00PM 45.7558 -114.1294 114° Southeast 487 560 31,000  Level Salt Lake Center
01:01PM 45.7006 -113.9544 114° Southeast 486 559 31,000  Level Salt Lake Center
01:02PM 45.6453 -113.7767 114° Southeast 491 565 31,000  Level Salt Lake Center
01:03PM 45.5747 -113.5631 115° Southeast 496 571 31,000  Level Salt Lake Center
01:04PM 45.5161 -113.3800 115° Southeast 499 574 31,000  Level Salt Lake Center
01:05PM 45.4592 -113.1989 114° Southeast 493 567 31,000  Level Salt Lake Center
01:06PM 45.3950 -113.0050 115° Southeast 494 568 31,000  Level Salt Lake Center
01:07PM 45.3425 -112.8389 114° Southeast 491 565 31,000  Level Salt Lake Center
01:08PM 45.2772 -112.6397 115° Southeast 498 573 31,000  Level Salt Lake Center
01:09PM 45.2311 -112.4628 110° East 502 578 31,000  Level Salt Lake Center
01:10PM 45.1983 -112.2772 104° East 506 582 31,000  Level Salt Lake Center
01:11PM 45.1619 -112.0625 103° East 508 585 31,000  Level Salt Lake Center
01:12PM 45.1261 -111.8622 104° East 514 592 31,000  Level Salt Lake Center
01:13PM 45.0881 -111.6489 104° East 517 595 31,000  Level Salt Lake Center
01:14PM 45.0528 -111.4583 105° East 520 598 31,000  Level Salt Lake Center
01:16PM 45.0178 -111.2667 104° East 523 602 31,000 871 Level Salt Lake Center
01:17PM 44.9767 -111.0458 105° East 519 597 32,800 1,355 Climbing Salt Lake Center
01:18PM 44.9411 -110.8600 105° East 512 589 33,800 1,065 Climbing Salt Lake Center
01:19PM 44.9003 -110.6464 105° East 504 580 35,000 585 Climbing Salt Lake Center
01:20PM 44.8647 -110.4642 105° East 501 577 35,000  Level Salt Lake Center
01:21PM 44.8281 -110.2808 106° East 507 583 35,000  Level Salt Lake Center
01:22PM 44.7861 -110.0636 105° East 512 589 35,000  Level Salt Lake Center
01:23PM 44.7481 -109.8778 106° East 516 594 35,000  Level Salt Lake Center
01:24PM 44.7044 -109.6636 106° East 518 596 35,000  Level Salt Lake Center
01:25PM 44.6644 -109.4683 106° East 521 600 35,000  Level Salt Lake Center
01:26PM 44.6244 -109.2739 106° East 522 601 35,000  Level Salt Lake Center
01:27PM 44.5844 -109.0797 106° East 522 601 35,000  Level Salt Lake Center
01:28PM 44.5469 -108.8886 105° East 513 590 35,000  Level Salt Lake Center
01:29PM 44.4983 -108.6603 107° East 512 589 35,000  Level Salt Lake Center
01:30PM 44.4572 -108.4706 107° East 514 592 35,000  Level Salt Lake Center
01:31PM 44.4167 -108.2822 107° East 512 589 35,000  Level Salt Lake Center
01:32PM 44.3758 -108.0950 107° East 510 587 35,000  Level Salt Lake Center
01:33PM 44.3350 -107.9081 107° East 508 585 35,000  Level Salt Lake Center
01:34PM 44.2853 -107.6842 107° East 508 585 35,000  Level Salt Lake Center
01:35PM 44.2431 -107.4983 108° East 507 583 35,000  Level Salt Lake Center
01:36PM 44.2011 -107.3133 107° East 505 581 35,000  Level Salt Lake Center
01:37PM 44.1589 -107.1283 108° East 504 580 35,000  Level Salt Lake Center
01:38PM 44.1158 -106.9422 108° East 506 582 35,000  Level Salt Lake Center
01:39PM 44.0811 -106.7850 107° East 506 582 35,000  Level Denver Center
01:40PM 44.0403 -106.6072 108° East 505 581 35,000  Level Denver Center
01:41PM 43.9744 -106.3536 110° East 501 577 35,000  Level Salt Lake Center
01:42PM 43.9386 -106.2350 113° Southeast 497 572 35,000  Level Denver Center
01:43PM 43.8781 -106.0408 113° Southeast 493 567 35,000  Level Denver Center
01:44PM 43.8264 -105.8719 113° Southeast 496 571 35,000  Level Denver Center
01:45PM 43.7636 -105.6800 114° Southeast 493 567 35,000  Level Denver Center
01:46PM 43.7125 -105.5122 113° Southeast 494 568 35,000  Level Denver Center
01:47PM 43.6506 -105.3192 114° Southeast 495 570 35,000  Level Denver Center
01:48PM 43.5981 -105.1525 113° Southeast 494 568 35,000  Level Denver Center
01:49PM 43.5356 -104.9600 114° Southeast 493 567 35,000  Level Denver Center
01:50PM 43.4817 -104.7953 114° Southeast 493 567 35,000  Level Denver Center
01:51PM 43.4275 -104.6311 114° Southeast 492 566 35,000  Level Denver Center
01:52PM 43.3639 -104.4400 115° Southeast 492 566 35,000  Level Denver Center
01:53PM 43.3103 -104.2761 114° Southeast 491 565 35,000  Level Denver Center
01:54PM 43.2461 -104.0836 115° Southeast 494 568 35,000  Level Denver Center
01:55PM 43.1908 -103.9206 115° Southeast 494 568 35,000 387 Level Denver Center
01:56PM 43.1278 -103.7319 115° Southeast 491 565 35,800 871 Climbing Denver Center
01:58PM 43.0722 -103.5714 115° Southeast 489 563 36,800 581 Climbing Denver Center
01:59PM 43.0081 -103.3833 115° Southeast 489 563 37,000 95 Climbing Denver Center
02:00PM 42.9528 -103.2233 115° Southeast 488 562 37,000  Level Denver Center
02:01PM 42.8872 -103.0347 115° Southeast 492 566 37,000  Level Denver Center
02:02PM 42.8403 -102.9006 115° Southeast 493 567 37,000  Level Denver Center
02:03PM 42.7639 -102.6861 116° Southeast 493 567 37,000  Level Denver Center
02:04PM 42.7078 -102.5253 115° Southeast 493 567 37,000  Level Denver Center
02:05PM 42.6603 -102.3928 116° Southeast 490 564 37,000  Level Denver Center
02:06PM 42.5853 -102.1811 116° Southeast 489 563 37,000  Level Denver Center
02:07PM 42.5186 -101.9958 116° Southeast 490 564 37,000  Level Denver Center
02:08PM 42.4561 -101.8247 116° Southeast 490 564 37,000  Level Denver Center
02:09PM 42.3989 -101.6658 116° Southeast 490 564 37,000  Level Denver Center
02:10PM 42.3311 -101.4833 117° Southeast 486 559 37,000  Level Denver Center
02:11PM 42.2731 -101.3261 116° Southeast 488 562 37,000  Level Denver Center
02:12PM 42.2050 -101.1425 117° Southeast 490 564 37,000  Level Denver Center
02:13PM 42.1458 -100.9850 117° Southeast 492 566 37,000  Level Denver Center
02:14PM 42.0875 -100.8286 117° Southeast 489 563 37,000  Level Denver Center
02:15PM 42.0189 -100.6469 117° Southeast 487 560 37,000  Level Denver Center
02:16PM 41.9594 -100.4908 117° Southeast 488 562 37,000  Level Denver Center
02:17PM 41.8822 -100.2900 117° Southeast 489 563 37,000  Level Minneapolis Center
02:18PM 41.8297 -100.1525 117° Southeast 491 565 37,000  Level Denver Center
02:19PM 41.7486 -99.9442 118° Southeast 493 567 37,000  Level Denver Center
02:21PM 41.6881 -99.7881 117° Southeast 492 566 37,000  Level Denver Center
02:22PM 41.6150 -99.6014 118° Southeast 498 573 37,000  Level Denver Center
02:23PM 41.5503 -99.4372 118° Southeast 498 573 37,000  Level Denver Center
02:24PM 41.4986 -99.3056 118° Southeast 499 574 37,000  Level Minneapolis Center
02:25PM 41.4189 -99.1083 118° Southeast 501 577 37,000  Level Denver Center
02:26PM 41.3558 -98.9492 118° Southeast 499 574 37,000  Level Minneapolis Center
02:27PM 41.2900 -98.7867 118° Southeast 499 574 37,000  Level Minneapolis Center
02:28PM 41.2236 -98.6242 118° Southeast 500 575 37,000  Level Minneapolis Center
02:29PM 41.1581 -98.4631 118° Southeast 498 573 37,000  Level Minneapolis Center
02:30PM 41.0847 -98.2839 118° Southeast 499 574 37,000  Level Minneapolis Center
02:31PM 41.0178 -98.1225 119° Southeast 499 574 37,000  Level Minneapolis Center
02:32PM 40.9503 -97.9614 119° Southeast 499 574 37,000  Level Minneapolis Center
02:33PM 40.8825 -97.7994 119° Southeast 501 577 37,000  Level Minneapolis Center
02:34PM 40.8158 -97.6394 119° Southeast 499 574 37,000  Level Minneapolis Center
02:35PM 40.7339 -97.4458 119° Southeast 501 577 37,000  Level Minneapolis Center
02:36PM 40.6767 -97.3072 119° Southeast 501 577 37,000  Level Minneapolis Center
02:37PM 40.5950 -97.1161 119° Southeast 500 575 37,000  Level Minneapolis Center
02:38PM 40.5264 -96.9586 120° Southeast 500 575 37,000  Level Minneapolis Center
02:39PM 40.4581 -96.7992 119° Southeast 501 577 37,000  Level Minneapolis Center
02:40PM 40.3906 -96.6408 119° Southeast 500 575 37,000  Level Minneapolis Center
02:41PM 40.3214 -96.4844 120° Southeast 499 574 37,000  Level Minneapolis Center
02:42PM 40.2531 -96.3264 119° Southeast 500 575 37,000  Level Minneapolis Center
02:43PM 40.1681 -96.1406 121° Southeast 498 573 37,000  Level Minneapolis Center
02:44PM 40.0900 -95.9939 125° Southeast 496 571 37,000  Level Minneapolis Center
02:45PM 40.0506 -95.9161 124° Southeast 494 568 37,000  Level Kansas City Center
02:46PM 39.9639 -95.7503 124° Southeast 494 568 37,000  Level Kansas City Center
02:47PM 39.8897 -95.6081 124° Southeast 495 570 37,000  Level Kansas City Center
02:48PM 39.8039 -95.4417 124° Southeast 494 568 37,000  Level Kansas City Center
02:49PM 39.7292 -95.3008 125° Southeast 492 566 37,000  Level Kansas City Center
02:50PM 39.6533 -95.1594 125° Southeast 495 570 37,000  Level Kansas City Center
02:51PM 39.5653 -94.9942 125° Southeast 493 567 37,000  Level Kansas City Center
02:52PM 39.4889 -94.8528 125° Southeast 495 570 37,000  Level Kansas City Center
02:53PM 39.4008 -94.6883 125° Southeast 494 568 37,000  Level Kansas City Center
02:54PM 39.3247 -94.5481 125° Southeast 497 572 37,000  Level Kansas City Center
02:55PM 39.2592 -94.3972 119° Southeast 506 582 37,000  Level Kansas City Center
02:56PM 39.1931 -94.2136 115° Southeast 505 581 37,000  Level Kansas City Center
02:57PM 39.1331 -94.0592 117° Southeast 503 579 37,000  Level Kansas City Center
02:58PM 39.0681 -93.8775 115° Southeast 499 574 37,000  Level Kansas City Center
02:59PM 39.0128 -93.7208 114° Southeast 501 577 37,000  Level Kansas City Center
03:00PM 38.9508 -93.5494 115° Southeast 502 578 37,000  Level Kansas City Center
03:01PM 38.8906 -93.3894 116° Southeast 498 573 37,000  Level Kansas City Center
03:02PM 38.8319 -93.2300 115° Southeast 495 570 37,000  Level Kansas City Center
03:03PM 38.7719 -93.0681 115° Southeast 499 574 37,000  Level Kansas City Center
03:04PM 38.6997 -92.8750 116° Southeast 499 574 37,000  Level Kansas City Center
03:05PM 38.6408 -92.7164 115° Southeast 495 570 37,000  Level Kansas City Center
03:06PM 38.5811 -92.5556 115° Southeast 496 571 37,000  Level Kansas City Center
03:07PM 38.5208 -92.3950 116° Southeast 496 571 37,000  Level Kansas City Center
03:08PM 38.4622 -92.2358 115° Southeast 492 566 37,000  Level Kansas City Center
03:10PM 38.3997 -92.0750 116° Southeast 496 571 37,000  Level Kansas City Center
03:11PM 38.3389 -91.9153 116° Southeast 496 571 37,000  Level Kansas City Center
03:12PM 38.2761 -91.7547 116° Southeast 499 574 37,000  Level Kansas City Center
03:13PM 38.2150 -91.5969 116° Southeast 496 571 37,000  Level Kansas City Center
03:14PM 38.1528 -91.4381 116° Southeast 496 571 37,000  Level Kansas City Center
03:15PM 38.0797 -91.2481 116° Southeast 497 572 37,000  Level Kansas City Center
03:16PM 38.0150 -91.0886 117° Southeast 500 575 37,000  Level Kansas City Center
03:17PM 37.9544 -90.9358 117° Southeast 503 579 37,000  Level Kansas City Center
03:18PM 37.8906 -90.7772 117° Southeast 507 583 37,000  Level Kansas City Center
03:19PM 37.8272 -90.6186 117° Southeast 508 585 37,000  Level Kansas City Center
03:20PM 37.7636 -90.4608 117° Southeast 508 585 37,000 -290 Level Kansas City Center
03:21PM 37.6878 -90.2728 117° Southeast 504 580 36,400 -774 Descending Kansas City Center
03:22PM 37.6250 -90.1169 117° Southeast 502 578 35,400 -1,065 Descending Kansas City Center
03:23PM 37.5633 -89.9650 117° Southeast 498 573 34,200 -1,161 Descending Kansas City Center
03:24PM 37.5003 -89.8094 117° Southeast 497 572 33,000 -581 Descending Kansas City Center
03:25PM 37.4339 -89.6533 118° Southeast 500 575 33,000  Level Kansas City Center
03:26PM 37.3542 -89.4625 118° Southeast 505 581 33,000  Level Kansas City Center
03:27PM 37.3014 -89.3367 118° Southeast 509 586 33,000  Level Memphis Center
03:28PM 37.2339 -89.1781 118° Southeast 512 589 33,000  Level Memphis Center
03:29PM 37.1669 -89.0206 118° Southeast 510 587 33,000  Level Memphis Center
03:30PM 37.1000 -88.8617 118° Southeast 512 589 33,000  Level Memphis Center
03:31PM 37.0181 -88.6714 118° Southeast 514 592 33,000  Level Memphis Center
03:32PM 36.9506 -88.5142 118° Southeast 512 589 33,000  Level Memphis Center
03:33PM 36.8831 -88.3569 118° Southeast 512 589 33,000  Level Memphis Center
03:34PM 36.8142 -88.2011 119° Southeast 511 588 33,000  Level Memphis Center
03:35PM 36.7422 -88.0358 118° Southeast 515 593 33,000  Level Memphis Center
03:36PM 36.6739 -87.8783 118° Southeast 514 592 33,000  Level Memphis Center
03:37PM 36.6042 -87.7208 119° Southeast 515 593 33,000  Level Memphis Center
03:38PM 36.5339 -87.5650 119° Southeast 513 590 33,000  Level Memphis Center
03:39PM 36.4258 -87.4125 131° Southeast 502 578 33,000  Level Memphis Center
03:40PM 36.3247 -87.2947 137° Southeast 498 573 33,000  Level Memphis Center
03:41PM 36.2244 -87.1794 137° Southeast 495 570 33,000  Level Memphis Center
03:42PM 36.1239 -87.0642 137° Southeast 493 567 33,000  Level Memphis Center
03:43PM 36.0244 -86.9472 136° Southeast 495 570 33,000  Level Memphis Center
03:45PM 35.9078 -86.8114 137° Southeast 494 568 33,000  Level Memphis Center
03:46PM 35.8089 -86.6939 136° Southeast 492 566 33,000  Level Memphis Center
03:47PM 35.7106 -86.5756 136° Southeast 492 566 33,000  Level Memphis Center
03:48PM 35.6119 -86.4589 136° Southeast 490 564 33,000  Level Memphis Center
03:49PM 35.5133 -86.3428 136° Southeast 488 562 33,000  Level Memphis Center
03:50PM 35.4139 -86.2272 137° Southeast 489 563 33,000  Level Memphis Center
03:51PM 35.3164 -86.1114 136° Southeast 489 563 33,000  Level Memphis Center
03:52PM 35.1981 -85.9742 137° Southeast 489 563 33,000 -242 Level Memphis Center
03:53PM 35.0983 -85.8611 137° Southeast 490 564 32,500 -919 Descending Memphis Center
03:54PM 34.9981 -85.7481 137° Southeast 491 565 31,100 -1,276 Descending Memphis Center
03:55PM 34.8942 -85.6292 137° Southeast 492 566 29,800 -1,440 Descending Atlanta Center
03:56PM 34.7872 -85.5208 140° Southeast 492 566 28,100 -2,500 Descending Atlanta Center
03:57PM 34.6714 -85.4306 147° Southeast 492 566 24,800 -3,050 Descending Atlanta Center
03:58PM 34.5533 -85.3503 151° Southeast 492 566 22,000 -2,850 Descending Atlanta Center
03:59PM 34.4414 -85.2731 150° Southeast 475 547 19,100 -2,800 Descending Atlanta Center
04:00PM 34.3378 -85.1961 148° Southeast 457 526 16,400 -2,600 Descending Atlanta Center
04:01PM 34.2361 -85.1242 150° Southeast 435 501 13,900 -1,550 Descending Atlanta Center
04:02PM 34.1406 -85.0603 151° Southeast 407 468 13,300 -600 Descending Atlanta Center
04:03PM 34.0681 -84.9967 144° Southeast 354 407 12,700 -850 Descending Atlanta Center
04:04PM 34.0081 -84.9208 134° Southeast 312 359 11,600 -1,200 Descending Atlanta Center
04:05PM 33.9394 -84.8828 155° Southeast 252 290 10,300 -1,300 Descending Atlanta Center
04:06PM 33.8644 -84.8894 184° South 265 305 9,000 -650 Descending Atlanta Center
04:07PM 33.7892 -84.8961 184° South 275 316 9,000 -550 Level Atlanta Center
04:08PM 33.7119 -84.8928 178° South 280 322 7,900 -1,062 Descending Atlanta Center
04:09PM 33.6500 -84.8667 161° South 239 275 7,000 -655 Descending Atlanta TRACON
04:10PM 33.6333 -84.7833 103° East 238 274 6,600 -476 Descending Atlanta TRACON
04:11PM 33.6333 -84.7167 90° East 201 231 6,000 -1,050 Descending Atlanta TRACON
04:12PM 33.6333 -84.6500 90° East 194 223 4,500 -1,333 Descending Atlanta TRACON
04:13PM 33.6333 -84.5833 90° East 191 220 3,200 -1,050 Descending Atlanta TRACON
04:14PM 33.6333 -84.5333 90° East 159 183 2,400 -842 Descending Atlanta TRACON
04:15PM 33.6333 -84.4833 90° East 126 145 1,600 -800 Descending Atlanta TRACON